Time;durP1;ratioP1;P1;durP2;ratioP2;P2;SDS_P1;SDS_P2;PMS_P1;PMS_P2;Temp;Humidity;BMP_temperature;BMP_pressure;BME280_temperature;BME280_humidity;BME280_pressure;Samples;Min_cycle;Max_cycle;Signal;HPM_P1;HPM_P2
2021/06/22 00:01:53;;;;;;;11.32;7.80;;;;;;;22.50;63.87;99718.28;5087900;28;20036;-22
2021/06/22 00:04:18;;;;;;;8.88;7.97;;;;;;;22.18;64.85;99709.16;5069002;28;20027;-22
2021/06/22 00:06:44;;;;;;;11.43;8.02;;;;;;;21.69;67.03;99714.22;5087630;28;20028;-23
2021/06/22 00:09:09;;;;;;;12.18;7.60;;;;;;;21.87;66.27;99712.53;5087603;28;20508;-23
2021/06/22 00:11:34;;;;;;;9.18;7.88;;;;;;;22.12;64.61;99704.94;5069571;28;20172;-22
2021/06/22 00:14:01;;;;;;;10.32;8.40;;;;;;;22.19;64.20;99705.31;5087349;28;20027;-23
2021/06/22 00:16:26;;;;;;;12.27;7.75;;;;;;;21.63;65.59;99704.59;5087452;28;20184;-22
2021/06/22 00:18:51;;;;;;;8.48;7.47;;;;;;;20.80;67.72;99691.66;5087293;28;20060;-22
2021/06/22 00:21:17;;;;;;;9.80;8.25;;;;;;;20.62;69.00;99720.38;5087455;28;20518;-22
2021/06/22 00:23:42;;;;;;;11.55;8.20;;;;;;;20.31;70.29;99717.28;5069251;28;20036;-22
2021/06/22 00:26:08;;;;;;;14.60;8.07;;;;;;;20.55;69.47;99706.34;5068821;28;20028;-22
2021/06/22 00:28:33;;;;;;;10.48;8.20;;;;;;;20.99;68.06;99709.78;5087101;28;20213;-22
2021/06/22 00:30:59;;;;;;;13.75;9.82;;;;;;;21.43;66.58;99705.78;5087331;28;20036;-22
2021/06/22 00:33:24;;;;;;;15.73;10.55;;;;;;;21.26;66.79;99701.69;5087174;28;20036;-22
2021/06/22 00:35:50;;;;;;;14.98;8.98;;;;;;;21.57;65.99;99694.94;5087109;28;20024;-22
2021/06/22 00:38:15;;;;;;;11.52;9.02;;;;;;;21.21;66.78;99699.09;5086946;28;20519;-22
2021/06/22 00:40:41;;;;;;;12.98;9.63;;;;;;;21.33;66.98;99700.50;5087179;28;20032;-22
2021/06/22 00:43:06;;;;;;;15.27;9.55;;;;;;;21.16;66.93;99680.19;5069025;28;20035;-22
2021/06/22 00:45:33;;;;;;;13.98;10.45;;;;;;;21.40;66.51;99704.44;5087236;28;20050;-22
2021/06/22 00:47:58;;;;;;;16.65;10.52;;;;;;;20.90;68.47;99698.78;5087221;28;20150;-22
2021/06/22 00:50:24;;;;;;;15.80;9.93;;;;;;;20.93;68.43;99708.25;5086792;28;20649;-23
2021/06/22 00:52:50;;;;;;;11.25;9.38;;;;;;;20.42;69.60;99718.75;5087163;28;20062;-22
2021/06/22 00:55:28;;;;;;;10.07;8.60;;;;;;;20.44;69.83;99696.78;5069161;28;20035;-22
2021/06/22 00:58:06;;;;;;;10.73;8.88;;;;;;;20.71;68.78;99708.88;5087137;28;20085;-22
2021/06/22 01:00:32;;;;;;;;;;;;;;;20.72;68.63;99703.16;5069360;28;20028;-22
2021/06/22 01:02:58;;;;;;;9.90;8.18;;;;;;;20.72;68.52;99702.34;5090457;28;20265;-22
2021/06/22 01:05:24;;;;;;;11.60;8.48;;;;;;;20.74;68.14;99714.53;5090906;28;20115;-22
2021/06/22 01:07:53;;;;;;;10.40;7.95;;;;;;;20.14;70.10;99711.56;5090791;28;20028;-22
2021/06/22 01:10:19;;;;;;;9.90;8.32;;;;;;;20.02;70.42;99707.38;5090677;28;20036;-22
2021/06/22 01:12:44;;;;;;;10.73;8.63;;;;;;;19.76;71.71;99717.72;5090822;28;20028;-22
2021/06/22 01:15:18;;;;;;;10.68;8.48;;;;;;;19.83;71.54;99715.44;5090523;28;20028;-22
2021/06/22 01:17:43;;;;;;;10.88;9.00;;;;;;;20.18;69.86;99693.63;5090666;28;20776;-22
2021/06/22 01:20:09;;;;;;;10.65;8.60;;;;;;;19.91;71.22;99716.72;5090507;28;20031;-22
2021/06/22 01:22:35;;;;;;;10.38;9.10;;;;;;;20.39;68.89;99694.97;5090792;28;20072;-22
2021/06/22 01:25:02;;;;;;;14.13;9.45;;;;;;;20.24;69.77;99719.53;5090956;28;20031;-22
2021/06/22 01:27:27;;;;;;;11.25;9.45;;;;;;;19.90;71.23;99720.53;5090735;28;20092;-22
2021/06/22 01:29:53;;;;;;;11.95;9.70;;;;;;;19.97;71.20;99726.38;5090520;28;20031;-22
2021/06/22 01:32:18;;;;;;;13.20;9.82;;;;;;;20.01;71.21;99715.78;5090205;28;20384;-22
2021/06/22 01:34:44;;;;;;;13.07;9.27;;;;;;;20.23;70.31;99712.53;5090209;28;20396;-22
2021/06/22 01:37:09;;;;;;;13.88;9.90;;;;;;;20.52;69.17;99708.88;5090203;28;20032;-22
2021/06/22 01:39:35;;;;;;;14.35;10.15;;;;;;;20.37;69.61;99696.34;5090389;28;20039;-22
2021/06/22 01:42:00;;;;;;;11.52;9.55;;;;;;;20.43;69.59;99714.13;5090441;28;20035;-22
2021/06/22 01:44:27;;;;;;;11.40;9.15;;;;;;;20.31;69.74;99694.81;5090251;28;20024;-23
2021/06/22 01:46:53;;;;;;;12.73;9.93;;;;;;;20.30;70.07;99714.88;5090224;28;20042;-22
2021/06/22 01:49:19;;;;;;;11.82;9.35;;;;;;;20.17;70.28;99702.88;5090288;28;20419;-22
2021/06/22 01:51:44;;;;;;;11.00;9.25;;;;;;;19.96;71.19;99696.88;5090094;28;20407;-22
2021/06/22 01:54:09;;;;;;;12.35;9.80;;;;;;;20.19;70.22;99687.13;5089716;28;20032;-22
2021/06/22 01:56:36;;;;;;;15.35;9.35;;;;;;;20.85;67.59;99694.28;5090275;28;20032;-22
2021/06/22 01:59:02;;;;;;;15.73;9.60;;;;;;;20.45;69.27;99698.38;5089962;28;20035;-22
2021/06/22 02:01:28;;;;;;;13.55;9.57;;;;;;;20.24;69.71;99703.28;5090018;28;20055;-22
2021/06/22 02:03:53;;;;;;;12.57;10.25;;;;;;;20.64;68.66;99696.50;5089699;28;20028;-22
2021/06/22 02:06:19;;;;;;;13.52;10.27;;;;;;;20.83;67.22;99682.13;5089650;28;20044;-22
2021/06/22 02:08:44;;;;;;;11.40;9.52;;;;;;;20.89;68.07;99699.13;5089973;28;20744;-23
2021/06/22 02:11:10;;;;;;;13.32;9.77;;;;;;;20.64;68.26;99701.13;5089731;28;20036;-22
2021/06/22 02:13:35;;;;;;;13.55;10.18;;;;;;;20.93;67.02;99692.00;5088694;28;20040;-22
2021/06/22 02:16:01;;;;;;;16.45;11.32;;;;;;;21.20;65.92;99678.50;5089598;28;20400;-22
2021/06/22 02:18:26;;;;;;;14.05;10.30;;;;;;;21.01;66.19;99673.13;5089424;28;20045;-22
2021/06/22 02:20:52;;;;;;;13.32;9.60;;;;;;;21.21;65.58;99671.97;5089430;28;20083;-22
2021/06/22 02:23:17;;;;;;;12.77;10.40;;;;;;;21.10;65.64;99656.97;5089600;28;20445;-22
2021/06/22 02:25:43;;;;;;;14.35;9.95;;;;;;;20.82;66.83;99665.06;5089493;28;20024;-22
2021/06/22 02:28:15;;;;;;;13.15;10.63;;;;;;;20.99;66.49;99661.00;5071140;28;20544;-23
2021/06/22 02:30:41;;;;;;;12.98;10.93;;;;;;;21.15;66.11;99665.03;5071105;28;20035;-22
2021/06/22 02:33:07;;;;;;;13.73;11.48;;;;;;;20.89;66.72;99663.88;5037788;28;20081;-22
2021/06/22 02:35:32;;;;;;;15.00;11.27;;;;;;;20.81;66.84;99658.03;5071047;28;20028;-23
2021/06/22 02:37:58;;;;;;;13.88;11.70;;;;;;;20.62;67.26;99646.44;5089336;28;20028;-22
2021/06/22 02:40:24;;;;;;;12.48;10.52;;;;;;;20.59;68.00;99671.41;5088973;28;20035;-23
2021/06/22 02:42:50;;;;;;;14.35;10.73;;;;;;;19.98;69.53;99667.63;5089105;28;20115;-22
2021/06/22 02:45:15;;;;;;;16.80;10.95;;;;;;;19.94;69.88;99656.63;5089108;28;20120;-22
2021/06/22 02:47:42;;;;;;;13.23;10.90;;;;;;;20.34;68.69;99657.13;5089235;28;20064;-22
2021/06/22 02:50:08;;;;;;;14.07;11.60;;;;;;;20.17;68.94;99649.53;5089009;28;20024;-22
2021/06/22 02:52:33;;;;;;;14.02;11.02;;;;;;;20.04;69.88;99680.00;5088915;28;20373;-22
2021/06/22 02:54:58;;;;;;;12.95;10.40;;;;;;;19.96;69.80;99688.78;5089024;28;20024;-22
2021/06/22 02:57:24;;;;;;;15.82;10.73;;;;;;;19.65;70.82;99705.34;5088908;28;20036;-22
2021/06/22 02:59:49;;;;;;;12.50;10.10;;;;;;;18.89;73.07;99701.50;5088902;28;20421;-22
2021/06/22 03:02:15;;;;;;;12.38;9.63;;;;;;;18.53;73.99;99689.06;5088456;28;20046;-22
2021/06/22 03:04:41;;;;;;;14.82;10.77;;;;;;;18.70;74.42;99704.84;5088630;28;20143;-22
2021/06/22 03:07:06;;;;;;;13.02;10.18;;;;;;;19.46;71.33;99694.47;5088750;28;20564;-22
2021/06/22 03:09:32;;;;;;;14.27;10.27;;;;;;;19.28;72.18;99687.88;5088617;28;20082;-21
2021/06/22 03:11:57;;;;;;;15.85;10.27;;;;;;;19.52;71.35;99693.31;5088451;28;20381;-22
2021/06/22 03:14:23;;;;;;;15.10;9.93;;;;;;;20.01;69.87;99710.38;5088476;28;20043;-22
2021/06/22 03:16:49;;;;;;;11.77;10.20;;;;;;;20.00;70.55;99704.16;5088389;28;20116;-22
2021/06/22 03:19:14;;;;;;;12.23;10.63;;;;;;;19.92;71.41;99707.50;5088176;28;20051;-22
2021/06/22 03:21:43;;;;;;;14.13;11.10;;;;;;;19.86;70.70;99704.06;5088231;28;20062;-22
2021/06/22 03:24:16;;;;;;;13.27;10.40;;;;;;;19.79;71.09;99691.97;5088083;28;20028;-22
2021/06/22 03:26:41;;;;;;;14.15;10.00;;;;;;;19.98;71.00;99706.34;5088344;28;20088;-22
2021/06/22 03:29:07;;;;;;;12.05;10.75;;;;;;;20.31;69.33;99714.59;5087995;28;20480;-22
2021/06/22 03:31:33;;;;;;;15.70;11.35;;;;;;;20.03;70.84;99719.81;5088038;28;20063;-22
2021/06/22 03:33:59;;;;;;;16.30;10.43;;;;;;;19.56;71.77;99702.47;5087890;28;20039;-22
2021/06/22 03:36:24;;;;;;;15.05;11.15;;;;;;;19.42;72.89;99721.28;5087843;28;20068;-22
2021/06/22 03:38:50;;;;;;;13.00;10.30;;;;;;;19.23;72.58;99691.47;5069783;28;20044;-22
2021/06/22 03:41:15;;;;;;;13.30;10.57;;;;;;;19.41;72.70;99719.69;5088084;28;20031;-22
2021/06/22 03:43:41;;;;;;;16.02;10.75;;;;;;;19.46;72.46;99716.09;5088018;28;20228;-22
2021/06/22 03:46:07;;;;;;;15.38;10.43;;;;;;;19.93;71.04;99714.53;5069510;28;20502;-22
2021/06/22 03:48:32;;;;;;;12.75;9.80;;;;;;;19.70;72.27;99705.31;5069665;28;20124;-22
2021/06/22 03:50:58;;;;;;;13.25;9.98;;;;;;;19.56;72.77;99721.41;5088024;28;20028;-22
2021/06/22 03:53:23;;;;;;;15.32;10.80;;;;;;;19.60;72.58;99695.41;5087778;28;20024;-22
2021/06/22 03:55:49;;;;;;;14.68;11.05;;;;;;;19.63;72.44;99702.13;5088112;28;20020;-22
2021/06/22 03:58:14;;;;;;;13.15;10.90;;;;;;;19.56;73.47;99710.59;5069334;28;20032;-22
2021/06/22 04:00:40;;;;;;;13.90;11.50;;;;;;;19.80;72.37;99712.53;5087639;28;20043;-22
2021/06/22 04:03:05;;;;;;;13.13;10.60;;;;;;;19.82;72.71;99707.63;5087850;28;20046;-22
2021/06/22 04:05:31;;;;;;;13.40;11.07;;;;;;;19.79;72.55;99713.63;5069445;28;20039;-22
2021/06/22 04:07:57;;;;;;;12.90;11.45;;;;;;;20.02;72.09;99734.44;5069275;28;20407;-22
2021/06/22 04:10:23;;;;;;;18.17;11.80;;;;;;;19.96;71.96;99726.66;5087484;28;20491;-22
2021/06/22 04:12:49;;;;;;;14.52;11.55;;;;;;;19.92;72.19;99734.56;5087511;28;20032;-23
2021/06/22 04:15:15;;;;;;;13.32;11.27;;;;;;;20.07;72.58;99737.09;5087281;28;20066;-22
2021/06/22 04:17:40;;;;;;;15.70;12.02;;;;;;;20.20;72.67;99735.56;5087195;28;20043;-23
2021/06/22 04:20:06;;;;;;;14.05;11.20;;;;;;;20.52;71.19;99735.97;5087280;28;20032;-22
2021/06/22 04:22:32;;;;;;;13.38;11.65;;;;;;;20.62;70.48;99739.34;5087613;28;20020;-22
2021/06/22 04:24:57;;;;;;;14.13;11.70;;;;;;;20.55;71.03;99736.16;5087161;28;20399;-22
2021/06/22 04:27:23;;;;;;;15.70;12.25;;;;;;;20.82;70.41;99749.06;5087604;28;20035;-22
2021/06/22 04:29:48;;;;;;;14.40;11.85;;;;;;;21.18;68.77;99745.78;5087648;28;20028;-22
2021/06/22 04:32:14;;;;;;;15.80;11.85;;;;;;;21.49;67.86;99749.88;5087029;28;20081;-22
2021/06/22 04:34:39;;;;;;;20.40;12.57;;;;;;;21.43;68.44;99747.28;5087792;28;20503;-22
2021/06/22 04:37:05;;;;;;;15.82;12.93;;;;;;;21.66;67.47;99740.06;5086723;28;20040;-22
2021/06/22 04:39:30;;;;;;;20.40;14.07;;;;;;;21.80;67.41;99748.22;5087021;28;20031;-22
2021/06/22 04:41:56;;;;;;;15.85;13.77;;;;;;;21.44;68.14;99743.47;5087351;28;20483;-22
2021/06/22 04:44:21;;;;;;;18.73;14.73;;;;;;;21.18;69.73;99748.47;5068852;28;20016;-22
2021/06/22 04:46:47;;;;;;;17.05;15.10;;;;;;;21.24;69.43;99725.59;5069120;28;20491;-22
2021/06/22 04:49:12;;;;;;;21.67;15.13;;;;;;;21.42;69.56;99737.53;5087193;28;20070;-22
2021/06/22 04:51:38;;;;;;;16.73;14.57;;;;;;;21.81;68.47;99749.81;5086900;28;20028;-22
2021/06/22 04:54:03;;;;;;;20.88;14.77;;;;;;;22.20;66.88;99755.84;5086809;28;20039;-22
2021/06/22 04:56:29;;;;;;;16.77;13.93;;;;;;;22.31;66.32;99762.66;5087282;28;20142;-22
2021/06/22 04:58:55;;;;;;;18.00;14.98;;;;;;;22.49;66.16;99763.66;5069061;28;20036;-24
2021/06/22 05:01:21;;;;;;;17.40;14.60;;;;;;;22.45;65.98;99751.78;5086970;28;20035;-22
2021/06/22 05:03:46;;;;;;;16.17;13.48;;;;;;;22.66;65.76;99757.59;5087078;28;20032;-22
2021/06/22 05:06:12;;;;;;;15.95;14.25;;;;;;;22.59;66.59;99768.84;5086818;28;20035;-22
2021/06/22 05:08:38;;;;;;;15.45;13.82;;;;;;;22.29;67.00;99748.59;5086807;28;20418;-22
2021/06/22 05:11:05;;;;;;;16.98;13.52;;;;;;;22.19;66.56;99760.47;5086857;28;20032;-22
2021/06/22 05:13:31;;;;;;;16.25;12.70;;;;;;;22.11;66.94;99747.59;5086750;28;20028;-22
2021/06/22 05:15:56;;;;;;;14.15;12.45;;;;;;;21.75;68.77;99772.72;5068714;28;20036;-22
2021/06/22 05:18:21;;;;;;;16.73;14.38;;;;;;;22.10;68.57;99764.19;5086291;28;20117;-22
2021/06/22 05:20:47;;;;;;;18.55;13.43;;;;;;;22.73;66.24;99751.72;5086759;28;20505;-22
2021/06/22 05:23:12;;;;;;;13.63;12.15;;;;;;;23.23;65.14;99759.75;5068717;28;20036;-22
2021/06/22 05:25:38;;;;;;;16.17;13.25;;;;;;;23.20;63.39;99760.38;5086704;28;20028;-22
2021/06/22 05:28:03;;;;;;;13.95;11.32;;;;;;;23.15;63.57;99769.50;5086499;28;20464;-22
2021/06/22 05:30:29;;;;;;;13.30;11.50;;;;;;;23.16;63.27;99765.66;5068338;28;20024;-22
2021/06/22 05:32:54;;;;;;;13.77;12.15;;;;;;;23.25;64.00;99765.69;5086540;28;20038;-22
2021/06/22 05:35:20;;;;;;;15.57;12.48;;;;;;;23.47;63.60;99767.59;5087037;28;20744;-22
2021/06/22 05:37:45;;;;;;;14.90;12.48;;;;;;;23.50;62.83;99766.16;5068818;28;20040;-22
2021/06/22 05:40:11;;;;;;;15.98;14.00;;;;;;;23.73;62.35;99773.16;5086479;28;20028;-22
2021/06/22 05:42:37;;;;;;;14.93;12.95;;;;;;;23.81;61.74;99774.34;5086719;28;20028;-22
2021/06/22 05:45:04;;;;;;;15.20;12.38;;;;;;;23.40;62.28;99778.13;5086571;28;20016;-22
2021/06/22 05:47:29;;;;;;;15.40;13.05;;;;;;;23.40;62.79;99775.41;5086441;28;20060;-22
2021/06/22 05:49:55;;;;;;;20.98;15.63;;;;;;;23.78;62.16;99764.88;5089527;28;20032;-22
2021/06/22 05:52:20;;;;;;;13.43;10.90;;;;;;;24.14;61.57;99772.03;5089580;28;20032;-22
2021/06/22 05:54:47;;;;;;;12.30;10.63;;;;;;;24.51;60.21;99774.53;5089942;28;20031;-22
2021/06/22 05:57:12;;;;;;;14.88;12.13;;;;;;;24.40;59.42;99763.13;5089826;28;20414;-22
2021/06/22 05:59:37;;;;;;;18.58;13.27;;;;;;;24.17;60.46;99778.78;5090320;28;20036;-22
2021/06/22 06:02:03;;;;;;;11.88;10.63;;;;;;;24.25;60.67;99775.25;5089599;28;20188;-23
2021/06/22 06:04:29;;;;;;;13.00;10.75;;;;;;;24.25;61.43;99778.81;5089664;28;20028;-24
2021/06/22 06:06:55;;;;;;;13.88;10.20;;;;;;;24.63;60.99;99788.34;5089537;28;20035;-22
2021/06/22 06:09:21;;;;;;;12.10;10.02;;;;;;;24.55;59.64;99775.50;5089911;28;20035;-22
2021/06/22 06:11:47;;;;;;;12.27;9.52;;;;;;;24.70;59.39;99787.84;5089599;28;20423;-22
2021/06/22 06:14:12;;;;;;;12.45;9.80;;;;;;;24.99;58.79;99795.41;5089350;28;20036;-22
2021/06/22 06:16:38;;;;;;;13.73;9.75;;;;;;;25.09;58.21;99795.09;5090033;28;20109;-22
2021/06/22 06:19:03;;;;;;;13.27;10.77;;;;;;;25.04;58.16;99793.31;5089379;28;20060;-22
2021/06/22 06:21:29;;;;;;;11.85;8.93;;;;;;;25.23;58.08;99797.66;5089475;28;20028;-22
2021/06/22 06:23:56;;;;;;;11.20;9.38;;;;;;;25.31;57.57;99804.22;5089705;28;20139;-22
2021/06/22 06:26:23;;;;;;;12.52;9.15;;;;;;;24.97;58.79;99792.22;5071418;28;20028;-22
2021/06/22 06:28:53;;;;;;;11.38;9.30;;;;;;;25.29;57.99;99795.56;5089500;28;20373;-22
2021/06/22 06:31:21;;;;;;;12.85;8.95;;;;;;;25.19;58.66;99789.28;5089320;28;20107;-22
2021/06/22 06:33:47;;;;;;;13.02;9.65;;;;;;;25.55;57.73;99801.75;5089461;28;20875;-22
2021/06/22 06:36:12;;;;;;;10.90;8.82;;;;;;;25.62;57.10;99790.31;5088923;28;20119;-22
2021/06/22 06:38:38;;;;;;;12.68;9.15;;;;;;;25.77;56.10;99783.53;5089048;28;20047;-22
2021/06/22 06:41:03;;;;;;;9.98;8.90;;;;;;;26.02;56.37;99793.56;5089322;28;20844;-22
2021/06/22 06:43:28;;;;;;;11.40;9.48;;;;;;;26.01;54.36;99786.50;5088868;28;20028;-22
2021/06/22 06:45:54;;;;;;;13.98;9.50;;;;;;;26.05;54.85;99801.13;5088704;28;20036;-22
2021/06/22 06:48:20;;;;;;;10.55;8.77;;;;;;;26.31;55.04;99800.16;5088733;28;20043;-22
2021/06/22 06:50:46;;;;;;;10.10;9.07;;;;;;;26.11;57.08;99793.50;5088732;28;20085;-22
2021/06/22 06:53:11;;;;;;;10.88;9.75;;;;;;;26.24;54.90;99783.50;5088946;28;20496;-22
2021/06/22 06:55:46;;;;;;;12.25;9.10;;;;;;;26.24;54.66;99783.50;5088751;28;20025;-22
2021/06/22 06:58:11;;;;;;;11.55;9.23;;;;;;;26.75;53.57;99781.56;5088582;28;20043;-22
2021/06/22 07:00:37;;;;;;;12.90;9.57;;;;;;;27.01;53.13;99783.25;5088393;28;20032;-22
2021/06/22 07:03:04;;;;;;;11.00;9.45;;;;;;;26.71;52.58;99786.09;5088353;28;20040;-22
2021/06/22 07:05:29;;;;;;;10.45;9.35;;;;;;;26.28;55.87;99778.97;5088498;28;20027;-22
2021/06/22 07:07:55;;;;;;;11.52;9.80;;;;;;;26.21;55.45;99778.66;5088436;28;20032;-22
2021/06/22 07:10:21;;;;;;;14.55;9.75;;;;;;;26.28;54.83;99789.91;5088075;28;20036;-22
2021/06/22 07:12:47;;;;;;;11.48;9.75;;;;;;;26.55;54.17;99783.13;5088440;28;20040;-22
2021/06/22 07:15:13;;;;;;;12.07;10.15;;;;;;;26.59;54.41;99800.50;5088236;28;20020;-22
2021/06/22 07:17:39;;;;;;;12.48;9.98;;;;;;;26.39;53.54;99779.38;5087622;28;20028;-22
2021/06/22 07:20:05;;;;;;;10.73;9.57;;;;;;;26.54;54.48;99799.84;5088072;28;20035;-22
2021/06/22 07:22:30;;;;;;;12.13;9.30;;;;;;;26.93;52.65;99803.28;5087737;28;20024;-22
2021/06/22 07:24:56;;;;;;;10.35;9.13;;;;;;;26.89;54.84;99791.41;5087919;28;20028;-22
2021/06/22 07:27:21;;;;;;;10.15;9.07;;;;;;;26.94;53.68;99794.75;5087701;28;20381;-22
2021/06/22 07:29:47;;;;;;;11.70;9.15;;;;;;;26.75;52.05;99792.50;5088475;28;20043;-22
2021/06/22 07:32:12;;;;;;;10.50;9.00;;;;;;;26.36;53.54;99797.25;5087614;28;20031;-22
2021/06/22 07:34:38;;;;;;;10.32;9.23;;;;;;;26.67;54.04;99796.09;5088031;28;20568;-22
2021/06/22 07:37:03;;;;;;;10.05;9.05;;;;;;;26.69;53.87;99793.81;5088136;28;20027;-22
2021/06/22 07:39:29;;;;;;;9.35;8.45;;;;;;;26.74;52.87;99799.06;5087758;28;20028;-22
2021/06/22 07:41:54;;;;;;;10.88;9.02;;;;;;;27.10;53.05;99800.41;5087952;28;20024;-21
2021/06/22 07:44:19;;;;;;;10.82;8.75;;;;;;;27.16;52.47;99790.03;5087569;28;20080;-22
2021/06/22 07:46:45;;;;;;;11.23;8.68;;;;;;;27.29;51.50;99799.13;5087868;28;20539;-22
2021/06/22 07:49:10;;;;;;;11.00;8.45;;;;;;;27.62;50.19;99799.91;5087743;28;20046;-22
2021/06/22 07:51:36;;;;;;;9.07;7.90;;;;;;;27.41;48.65;99796.41;5087583;28;20097;-22
2021/06/22 07:54:01;;;;;;;10.32;8.38;;;;;;;27.26;48.95;99786.91;5087469;28;20795;-23
2021/06/22 07:56:27;;;;;;;8.80;7.35;;;;;;;27.57;46.67;99797.38;5087777;28;20028;-22
2021/06/22 07:58:52;;;;;;;10.50;7.65;;;;;;;27.78;46.71;99796.47;5087458;28;20039;-21
2021/06/22 08:01:18;;;;;;;9.65;6.85;;;;;;;27.70;46.02;99797.38;5087584;28;20035;-22
2021/06/22 08:03:43;;;;;;;9.63;7.60;;;;;;;27.92;45.94;99790.69;5087821;28;20034;-22
2021/06/22 08:06:10;;;;;;;7.70;6.57;;;;;;;27.91;43.95;99797.31;5086869;28;20028;-22
2021/06/22 08:08:35;;;;;;;8.32;6.70;;;;;;;28.04;45.16;99796.97;5069239;28;20038;-22
2021/06/22 08:11:01;;;;;;;7.65;6.43;;;;;;;28.18;45.60;99798.56;5086831;28;20036;-22
2021/06/22 08:13:26;;;;;;;7.53;6.25;;;;;;;28.46;44.31;99806.84;5087317;28;20024;-22
2021/06/22 08:15:52;;;;;;;7.82;6.10;;;;;;;28.44;44.01;99799.00;5087262;28;20071;-22
2021/06/22 08:18:18;;;;;;;7.10;5.50;;;;;;;28.78;41.58;99807.84;5086738;28;20111;-22
2021/06/22 08:20:44;;;;;;;6.57;5.80;;;;;;;28.86;43.15;99786.91;5087533;28;20191;-22
2021/06/22 08:23:09;;;;;;;6.38;5.43;;;;;;;28.90;42.95;99811.72;5087201;28;20169;-22
2021/06/22 08:25:35;;;;;;;8.05;7.00;;;;;;;28.68;46.83;99815.78;5086500;28;20020;-22
2021/06/22 08:28:00;;;;;;;7.78;6.70;;;;;;;28.54;47.23;99807.91;5086794;28;20028;-21
2021/06/22 08:30:26;;;;;;;8.00;5.85;;;;;;;28.87;44.52;99828.84;5087198;28;20534;-22
2021/06/22 08:32:52;;;;;;;7.13;5.30;;;;;;;29.22;42.05;99804.41;5086833;28;20028;-22
2021/06/22 08:35:17;;;;;;;7.68;5.38;;;;;;;29.67;43.15;99819.72;5087230;28;20032;-23
2021/06/22 08:37:43;;;;;;;7.35;5.78;;;;;;;29.88;41.13;99802.19;5086846;28;20027;-22
2021/06/22 08:40:10;;;;;;;8.00;6.70;;;;;;;30.07;41.26;99812.44;5086950;28;20039;-22
2021/06/22 08:42:36;;;;;;;8.60;6.35;;;;;;;29.69;41.71;99800.09;5087136;28;20024;-22
2021/06/22 08:45:03;;;;;;;8.70;6.70;;;;;;;29.64;41.97;99804.69;5087079;28;20373;-22
2021/06/22 08:47:29;;;;;;;10.65;7.30;;;;;;;29.65;44.76;99809.06;5087118;28;20024;-21
2021/06/22 08:49:56;;;;;;;8.15;6.30;;;;;;;29.86;42.86;99805.28;5086972;28;20040;-22
2021/06/22 08:52:25;;;;;;;;;;;;;;;29.63;45.09;99803.13;5087379;28;20024;-22
2021/06/22 08:54:54;;;;;;;7.20;6.45;;;;;;;29.41;43.86;99810.00;5087062;28;19911;-22
2021/06/22 08:57:20;;;;;;;7.90;7.10;;;;;;;29.52;44.95;99796.53;5086805;28;20115;-21
2021/06/22 08:59:45;;;;;;;9.88;6.60;;;;;;;29.59;42.87;99812.44;5086730;28;20075;-22
2021/06/22 09:02:11;;;;;;;8.02;6.15;;;;;;;29.71;44.15;99801.38;5086772;28;20466;-21
2021/06/22 09:04:36;;;;;;;6.97;6.10;;;;;;;29.82;44.18;99787.91;5086513;28;20031;-22
2021/06/22 09:07:02;;;;;;;9.57;6.75;;;;;;;29.94;41.40;99811.75;5086657;28;20039;-22
2021/06/22 09:09:40;;;;;;;7.68;5.60;;;;;;;29.99;41.53;99790.25;5086692;28;20843;-22
2021/06/22 09:12:07;;;;;;;7.65;5.90;;;;;;;30.31;41.62;99811.47;5086426;28;20032;-21
2021/06/22 09:14:39;;;;;;;8.55;4.80;;;;;;;30.50;39.23;99811.50;5086454;28;20453;-22
2021/06/22 09:17:05;;;;;;;6.00;5.20;;;;;;;30.25;41.47;99805.41;5086599;28;20067;-22
2021/06/22 09:19:31;;;;;;;7.70;4.75;;;;;;;30.25;39.59;99799.91;5086318;28;20058;-21
2021/06/22 09:21:57;;;;;;;7.25;5.80;;;;;;;30.52;40.35;99811.94;5086576;28;20040;-22
2021/06/22 09:24:26;;;;;;;5.90;5.32;;;;;;;30.57;41.22;99799.84;5090071;28;20063;-22
2021/06/22 09:26:52;;;;;;;8.27;5.90;;;;;;;30.86;41.50;99781.19;5090190;28;20458;-22
2021/06/22 09:29:20;;;;;;;9.02;5.72;;;;;;;30.84;39.66;99781.53;5090347;28;20028;-22
2021/06/22 09:31:54;;;;;;;6.70;5.07;;;;;;;30.62;38.44;99780.31;5090111;28;20024;-22
2021/06/22 09:34:20;;;;;;;7.85;5.13;;;;;;;30.97;38.58;99793.22;5089781;28;20385;-22
2021/06/22 09:36:53;;;;;;;8.25;6.10;;;;;;;31.09;39.29;99811.56;5090261;28;20036;-21
2021/06/22 09:39:20;;;;;;;8.10;5.75;;;;;;;30.73;41.80;99802.53;5090177;28;20032;-22
2021/06/22 09:41:45;;;;;;;8.85;6.15;;;;;;;30.90;41.97;99801.34;5090403;28;20122;-22
2021/06/22 09:44:12;;;;;;;9.05;5.85;;;;;;;30.91;39.83;99808.44;5090254;28;20032;-22
2021/06/22 09:46:44;;;;;;;6.55;5.38;;;;;;;31.50;38.54;99796.19;5090073;28;20585;-21
2021/06/22 09:49:24;;;;;;;11.07;5.75;;;;;;;31.42;38.42;99797.22;5090025;28;20040;-22
2021/06/22 09:52:01;;;;;;;6.95;5.38;;;;;;;31.51;38.02;99781.28;5090042;28;20028;-22
2021/06/22 09:54:27;;;;;;;;;;;;;;;31.61;38.25;99780.66;5090382;28;20046;-22
2021/06/22 09:57:00;;;;;;;7.00;5.32;;;;;;;31.21;38.85;99779.13;5089759;28;20006;-21
2021/06/22 09:59:26;;;;;;;7.53;5.35;;;;;;;31.57;37.33;99774.28;5089688;28;20028;-22
2021/06/22 10:01:52;;;;;;;7.43;5.35;;;;;;;32.03;35.47;99779.75;5089640;28;20035;-22
2021/06/22 10:04:24;;;;;;;8.73;5.15;;;;;;;32.17;38.04;99783.91;5089272;28;20032;-22
2021/06/22 10:06:57;;;;;;;7.88;4.15;;;;;;;32.16;33.69;99776.78;5089766;28;20028;-23
2021/06/22 10:09:27;;;;;;;8.32;4.30;;;;;;;32.00;34.16;99786.03;5089705;28;20020;-22
2021/06/22 10:11:56;;;;;;;30.98;22.27;;;;;;;31.86;38.38;99763.72;5089415;28;20036;-22
2021/06/22 10:14:48;;;;;;;6.95;4.93;;;;;;;32.77;34.43;99781.16;5089554;28;20503;-21
2021/06/22 10:17:18;;;;;;;8.07;5.00;;;;;;;32.83;33.83;99776.94;5078307;28;20101;-22
2021/06/22 10:19:45;;;;;;;8.48;4.85;;;;;;;33.27;33.49;99782.94;5089034;28;20496;-21
2021/06/22 10:22:11;;;;;;;;;;;;;;;32.83;35.78;99776.94;5089367;28;20031;-22
2021/06/22 10:24:40;;;;;;;6.72;5.93;;;;;;;32.95;38.35;99775.06;5089423;28;19912;-22
2021/06/22 10:27:06;;;;;;;9.27;6.25;;;;;;;32.68;37.10;99768.84;5089335;28;20060;-21
2021/06/22 10:29:31;;;;;;;7.75;5.15;;;;;;;33.03;35.09;99763.72;5089001;28;20215;-21
2021/06/22 10:31:58;;;;;;;11.65;5.88;;;;;;;33.01;36.13;99768.81;5089161;28;20389;-22
2021/06/22 10:34:23;;;;;;;11.50;6.15;;;;;;;33.32;37.04;99761.25;5088240;28;20020;-22
2021/06/22 10:36:55;;;;;;;8.15;5.53;;;;;;;32.83;35.35;99742.97;5089199;28;20392;-22
2021/06/22 10:39:32;;;;;;;8.05;5.78;;;;;;;33.36;34.99;99761.31;5089075;28;20059;-21
2021/06/22 10:41:58;;;;;;;8.48;5.70;;;;;;;33.17;37.04;99763.09;5071786;28;20039;-22
2021/06/22 10:44:24;;;;;;;8.73;5.68;;;;;;;33.67;34.49;99759.22;5070359;28;20035;-21
2021/06/22 10:47:18;;;;;;;8.88;6.18;;;;;;;33.66;36.04;99757.66;5089111;28;20035;-22
2021/06/22 10:50:06;;;;;;;7.53;6.38;;;;;;;32.93;36.84;99755.31;5088738;28;20031;-22
2021/06/22 10:52:43;;;;;;;8.63;6.30;;;;;;;33.48;34.96;99746.41;5088922;28;20032;-22
2021/06/22 10:55:17;;;;;;;9.32;5.97;;;;;;;33.99;33.60;99743.66;5088759;28;20071;-22
2021/06/22 10:58:01;;;;;;;8.10;5.97;;;;;;;34.21;33.22;99746.56;5088439;28;20567;-21
2021/06/22 11:00:28;;;;;;;8.65;6.45;;;;;;;34.22;33.07;99726.00;5088371;28;20032;-22
2021/06/22 11:03:15;;;;;;;7.03;5.28;;;;;;;33.99;33.06;99743.66;5088296;28;20130;-22
2021/06/22 11:05:43;;;;;;;9.55;4.97;;;;;;;33.64;33.67;99724.06;5088662;28;20028;-21
2021/06/22 11:08:08;;;;;;;10.23;5.40;;;;;;;34.22;32.17;99728.78;5088130;28;20063;-22
2021/06/22 11:10:33;;;;;;;8.52;5.00;;;;;;;34.15;32.00;99731.53;5088835;28;20090;-22
2021/06/22 11:12:59;;;;;;;7.15;4.85;;;;;;;34.35;31.26;99715.41;5070276;28;20040;-21
2021/06/22 11:15:44;;;;;;;10.27;5.55;;;;;;;34.54;31.47;99708.75;5070360;28;20503;-22
2021/06/22 11:18:10;;;;;;;7.80;5.10;;;;;;;34.65;31.65;99720.69;5087970;28;20132;-22
2021/06/22 11:20:36;;;;;;;8.88;5.55;;;;;;;34.38;32.80;99707.09;5088236;28;20554;-22
2021/06/22 11:23:06;;;;;;;7.93;4.78;;;;;;;34.88;31.92;99711.25;5070076;28;20044;-21
2021/06/22 11:25:47;;;;;;;8.63;4.75;;;;;;;34.79;31.11;99709.63;5088039;28;20034;-21